Polebridge, Montana
Current Conditions -  °F | °C
As of 5:55 AM on Thursday 23 Oct 2014 (Local Time) from KGPI Reporting Station
Overcast Overcast  
Wind Chill: 52°   Ceiling: 5000
Heat Index: 52°   Visibility: 10mi
Dew Point: 43°   Wind: 10mph
Humidity: 71%   Direction: 160°SSE
Pressure: 29.81"   Gusts: NA
Location:  48.77°N, 114.29°W
Report Text: KGPI 231155Z AUTO 16009KT 10SM OVC050 11/06 A2981 RMK AO2 SLP092 60000 T01110061 10133 20083 56009
Loading
Personal Weather Stations






























Interactive Weather Map
Tropical Storm Tracking
New forecast layout! Learn more

10-Day Weather Forecast

Advertisements
Track Severe Weather on mobile